createdAt,value
2023-05-18T00:00:28.171Z,9.34
2023-05-18T00:01:54.144Z,9.31
2023-05-18T00:02:58.283Z,9.35
2023-05-18T00:04:02.211Z,9.34
2023-05-18T00:05:05.721Z,9.30
2023-05-18T00:06:08.710Z,9.29
2023-05-18T00:07:11.612Z,9.31
2023-05-18T00:08:14.520Z,9.29
2023-05-18T00:09:17.444Z,9.28
2023-05-18T00:10:20.472Z,9.27
2023-05-18T00:11:23.563Z,9.26
2023-05-18T00:12:26.514Z,9.23
2023-05-18T00:13:30.451Z,9.21
2023-05-18T00:14:33.458Z,9.22
2023-05-18T00:15:36.437Z,9.18
2023-05-18T00:16:39.396Z,9.18
2023-05-18T00:17:42.850Z,9.21
2023-05-18T00:18:46.306Z,9.17
2023-05-18T00:19:50.387Z,9.18
2023-05-18T00:21:00.242Z,9.18
2023-05-18T00:22:03.721Z,9.20
2023-05-18T00:23:10.620Z,9.18
2023-05-18T00:24:14.599Z,9.18
2023-05-18T00:25:17.544Z,9.17
2023-05-18T00:26:21.050Z,9.18
2023-05-18T00:27:25.243Z,9.14
2023-05-18T00:28:29.732Z,9.13
2023-05-18T00:29:32.625Z,9.16
2023-05-18T00:30:35.730Z,9.13
2023-05-18T00:31:39.848Z,9.12
2023-05-18T00:32:43.071Z,9.12
2023-05-18T00:33:47.898Z,9.13
2023-05-18T00:34:50.760Z,9.11
2023-05-18T00:35:53.628Z,9.10
2023-05-18T00:36:56.663Z,9.11
2023-05-18T00:37:59.626Z,9.12
2023-05-18T00:39:03.365Z,9.13
2023-05-18T00:40:07.097Z,9.10
2023-05-18T00:41:10.357Z,9.07
2023-05-18T00:42:13.360Z,9.07
2023-05-18T00:43:16.351Z,9.08
2023-05-18T00:44:19.287Z,9.06
2023-05-18T00:45:22.265Z,9.07
2023-05-18T00:46:27.321Z,9.04
2023-05-18T00:47:30.200Z,9.04
2023-05-18T00:48:33.141Z,9.03
2023-05-18T00:49:36.240Z,9.06
2023-05-18T00:50:40.257Z,9.05
2023-05-18T00:51:44.323Z,9.05
2023-05-18T00:52:47.463Z,9.05
2023-05-18T00:53:52.322Z,9.01
2023-05-18T00:54:55.192Z,9.01
2023-05-18T00:55:58.809Z,9.01
2023-05-18T00:57:03.081Z,9.04
2023-05-18T00:58:06.099Z,9.02
2023-05-18T00:59:12.380Z,9.01
2023-05-18T01:00:16.009Z,9.01
2023-05-18T01:01:19.499Z,9.00
2023-05-18T01:02:23.368Z,8.97
2023-05-18T01:03:30.220Z,8.98
2023-05-18T01:04:34.205Z,9.00
2023-05-18T01:05:37.157Z,8.97
2023-05-18T01:06:41.459Z,8.96
2023-05-18T01:07:44.568Z,8.95
2023-05-18T01:08:49.567Z,8.94
2023-05-18T01:09:55.929Z,8.93
2023-05-18T01:11:15.178Z,8.91
2023-05-18T01:12:36.667Z,8.90
2023-05-18T01:13:50.424Z,8.89
2023-05-18T01:15:16.864Z,8.91
2023-05-18T01:16:28.093Z,8.89
2023-05-18T01:17:49.960Z,8.94
2023-05-18T01:19:03.104Z,8.88
2023-05-18T01:20:29.309Z,8.85
2023-05-18T01:21:53.733Z,8.88
2023-05-18T01:23:10.291Z,8.84
2023-05-18T01:24:26.087Z,8.81
2023-05-18T01:25:40.959Z,8.78
2023-05-18T01:26:45.686Z,8.77
2023-05-18T01:27:51.157Z,8.78
2023-05-18T01:28:54.639Z,8.80
2023-05-18T01:29:58.302Z,8.76
2023-05-18T01:31:01.695Z,8.74
2023-05-18T01:34:51.660Z,8.74
2023-05-18T01:35:54.864Z,8.75
2023-05-18T01:36:57.804Z,8.73
2023-05-18T01:38:00.807Z,8.72
2023-05-18T01:39:04.005Z,8.72
2023-05-18T01:40:09.927Z,8.71
2023-05-18T01:41:23.462Z,8.69
2023-05-18T01:42:31.225Z,8.68
2023-05-18T01:43:36.695Z,8.67
2023-05-18T01:44:53.570Z,8.67
2023-05-18T01:46:01.629Z,8.61
2023-05-18T01:47:08.927Z,8.63
2023-05-18T01:48:18.724Z,8.58
2023-05-18T01:49:36.672Z,8.60
2023-05-18T01:50:46.175Z,8.54
2023-05-18T01:51:50.994Z,8.54
2023-05-18T01:53:05.941Z,8.54
2023-05-18T01:54:11.597Z,8.49
2023-05-18T01:55:17.257Z,8.51
2023-05-18T01:56:21.887Z,8.50
2023-05-18T01:57:28.391Z,8.47
2023-05-18T01:58:32.833Z,8.46
2023-05-18T01:59:38.033Z,8.43
2023-05-18T02:00:41.258Z,8.41
2023-05-18T02:01:45.374Z,8.37
2023-05-18T02:02:48.911Z,8.36
2023-05-18T02:03:52.305Z,8.34
2023-05-18T02:04:55.594Z,8.33
2023-05-18T02:05:58.534Z,8.31
2023-05-18T02:07:01.977Z,8.30
2023-05-18T02:08:07.948Z,8.29
2023-05-18T02:09:10.938Z,8.28
2023-05-18T02:10:14.821Z,8.26
2023-05-18T02:11:18.129Z,8.21
2023-05-18T02:12:21.102Z,8.22
2023-05-18T02:13:23.987Z,8.17
2023-05-18T02:14:26.957Z,8.15
2023-05-18T02:15:30.665Z,8.13
2023-05-18T02:16:33.675Z,8.16
2023-05-18T02:17:40.042Z,8.13
2023-05-18T02:18:44.903Z,8.11
2023-05-18T02:19:48.918Z,8.08
2023-05-18T02:21:00.900Z,8.07
2023-05-18T02:22:06.943Z,8.04
2023-05-18T02:23:09.967Z,8.02
2023-05-18T02:24:13.364Z,7.99
2023-05-18T02:25:17.328Z,7.97
2023-05-18T02:26:21.061Z,7.96
2023-05-18T02:27:28.682Z,7.94
2023-05-18T02:28:31.696Z,7.91
2023-05-18T02:29:34.658Z,7.90
2023-05-18T02:30:37.565Z,7.87
2023-05-18T02:31:41.298Z,7.86
2023-05-18T02:32:47.294Z,7.85
2023-05-18T02:33:50.419Z,7.80
2023-05-18T02:34:54.052Z,7.81
2023-05-18T02:35:57.368Z,7.78
2023-05-18T02:37:03.972Z,7.74
2023-05-18T02:38:07.403Z,7.75
2023-05-18T02:39:10.640Z,7.70
2023-05-18T02:40:16.024Z,7.69
2023-05-18T02:41:19.183Z,7.70
2023-05-18T02:42:22.091Z,7.66
2023-05-18T02:43:24.970Z,7.65
2023-05-18T02:44:27.944Z,7.67
2023-05-18T02:45:31.017Z,7.63
2023-05-18T02:46:34.337Z,7.64
2023-05-18T02:47:37.676Z,7.65
2023-05-18T02:48:45.803Z,7.61
2023-05-18T02:49:48.917Z,7.62
2023-05-18T02:50:52.196Z,7.59
2023-05-18T02:51:55.486Z,7.61
2023-05-18T02:52:58.559Z,7.60
2023-05-18T02:54:01.760Z,7.57
2023-05-18T02:55:09.337Z,7.57
2023-05-18T02:56:28.732Z,7.51
2023-05-18T02:57:38.000Z,7.54
2023-05-18T02:58:44.162Z,7.49
2023-05-18T02:59:55.836Z,7.45
2023-05-18T03:01:00.458Z,7.46
2023-05-18T03:02:07.061Z,7.46
2023-05-18T03:03:16.241Z,7.45
2023-05-18T03:04:20.104Z,7.48
2023-05-18T03:05:28.704Z,7.48
2023-05-18T03:06:32.148Z,7.43
2023-05-18T03:07:35.153Z,7.42
2023-05-18T03:08:38.234Z,7.41
2023-05-18T03:09:41.318Z,7.39
2023-05-18T03:10:44.237Z,7.41
2023-05-18T03:11:47.208Z,7.41
2023-05-18T03:12:51.127Z,7.38
2023-05-18T03:13:54.855Z,7.37
2023-05-18T03:14:57.838Z,7.36
2023-05-18T03:16:00.759Z,7.37
2023-05-18T03:17:06.202Z,7.41
2023-05-18T03:18:09.427Z,7.40
2023-05-18T03:19:14.398Z,7.39
2023-05-18T03:20:17.907Z,7.39
2023-05-18T03:21:21.937Z,7.36
2023-05-18T03:22:24.892Z,7.37
2023-05-18T03:23:28.031Z,7.38
2023-05-18T03:24:40.370Z,7.41
2023-05-18T03:25:46.096Z,7.42
2023-05-18T03:26:49.059Z,7.40
2023-05-18T03:27:53.195Z,7.39
2023-05-18T03:28:56.189Z,7.40
2023-05-18T03:29:59.129Z,7.43
2023-05-18T03:31:02.734Z,7.40
2023-05-18T03:32:06.759Z,7.41
2023-05-18T03:33:09.882Z,7.42
2023-05-18T03:34:13.130Z,7.46
2023-05-18T03:35:16.788Z,7.43
2023-05-18T03:36:22.562Z,7.45
2023-05-18T03:37:25.689Z,7.48
2023-05-18T03:38:28.674Z,7.46
2023-05-18T03:39:37.085Z,7.52
2023-05-18T03:40:40.314Z,7.50
2023-05-18T03:41:43.281Z,7.54
2023-05-18T03:42:46.409Z,7.52
2023-05-18T03:43:49.490Z,7.53
2023-05-18T03:44:52.537Z,7.56
2023-05-18T03:45:56.386Z,7.55
2023-05-18T03:46:59.370Z,7.57
2023-05-18T03:48:02.910Z,7.57
2023-05-18T03:49:07.950Z,7.58
2023-05-18T03:50:15.117Z,7.61
2023-05-18T03:51:18.446Z,7.64
2023-05-18T03:52:22.739Z,7.62
2023-05-18T03:53:26.404Z,7.67
2023-05-18T03:54:29.309Z,7.64
2023-05-18T03:55:32.426Z,7.68
2023-05-18T03:56:36.281Z,7.65
2023-05-18T03:57:39.509Z,7.67
2023-05-18T03:58:42.703Z,7.72
2023-05-18T03:59:46.174Z,7.74
2023-05-18T04:00:49.742Z,7.72
2023-05-18T04:01:54.053Z,7.75
2023-05-18T04:02:58.105Z,7.77
2023-05-18T04:04:01.520Z,7.79
2023-05-18T04:05:06.701Z,7.82
2023-05-18T04:06:11.148Z,7.84
2023-05-18T04:07:18.451Z,7.86
2023-05-18T04:08:21.423Z,7.91
2023-05-18T04:09:24.585Z,7.91
2023-05-18T04:10:28.207Z,7.93
2023-05-18T04:11:32.526Z,7.93
2023-05-18T04:12:35.650Z,7.95
2023-05-18T04:13:38.930Z,7.99
2023-05-18T04:14:49.386Z,7.99
2023-05-18T04:15:52.975Z,7.99
2023-05-18T04:16:58.382Z,8.04
2023-05-18T04:18:02.227Z,8.03
2023-05-18T04:19:08.152Z,8.07
2023-05-18T04:20:14.612Z,8.07
2023-05-18T04:21:19.472Z,8.11
2023-05-18T04:22:22.767Z,8.12
2023-05-18T04:23:26.769Z,8.15
2023-05-18T04:24:34.652Z,8.13
2023-05-18T04:25:39.596Z,8.16
2023-05-18T04:26:43.198Z,8.20
2023-05-18T04:27:49.011Z,8.23
2023-05-18T04:29:00.275Z,8.26
2023-05-18T04:30:03.321Z,8.26
2023-05-18T04:31:06.810Z,8.27
2023-05-18T04:32:10.832Z,8.29
2023-05-18T04:33:16.443Z,8.34
2023-05-18T04:34:20.900Z,8.36
2023-05-18T04:35:27.704Z,8.36
2023-05-18T04:36:31.345Z,8.40
2023-05-18T04:37:34.613Z,8.42
2023-05-18T04:38:38.570Z,8.47
2023-05-18T04:39:42.387Z,8.45
2023-05-18T04:40:47.496Z,8.47
2023-05-18T04:41:58.150Z,8.52
2023-05-18T04:43:03.521Z,8.56
2023-05-18T04:44:07.757Z,8.59
2023-05-18T04:45:16.728Z,8.59
2023-05-18T04:46:22.423Z,8.66
2023-05-18T04:47:25.744Z,8.68
2023-05-18T04:48:30.586Z,8.67
2023-05-18T04:49:33.475Z,8.70
2023-05-18T04:50:37.317Z,8.73
2023-05-18T04:51:42.297Z,8.79
2023-05-18T04:52:49.007Z,8.81
2023-05-18T04:53:55.777Z,8.80
2023-05-18T04:54:58.768Z,8.81
2023-05-18T04:56:02.481Z,8.83
2023-05-18T04:57:05.526Z,8.87
2023-05-18T04:58:10.600Z,8.89
2023-05-18T04:59:14.243Z,8.92
2023-05-18T05:00:17.748Z,8.94
2023-05-18T05:01:20.854Z,8.97
2023-05-18T05:02:24.852Z,9.00
2023-05-18T05:03:28.045Z,9.04
2023-05-18T05:04:31.324Z,9.03
2023-05-18T05:05:34.330Z,9.06
2023-05-18T05:06:37.352Z,9.08
2023-05-18T05:07:40.506Z,9.12
2023-05-18T05:08:45.670Z,9.17
2023-05-18T05:09:48.667Z,9.15
2023-05-18T05:10:51.604Z,9.15
2023-05-18T05:11:56.360Z,9.16
2023-05-18T05:12:59.911Z,9.19
2023-05-18T05:14:03.330Z,9.20
2023-05-18T05:15:07.974Z,9.18
2023-05-18T05:16:11.079Z,9.21
2023-05-18T05:17:14.036Z,9.25
2023-05-18T05:18:32.908Z,9.28
2023-05-18T05:19:36.358Z,9.33
2023-05-18T05:20:39.352Z,9.35
2023-05-18T05:21:42.738Z,9.38
2023-05-18T05:22:45.951Z,9.41
2023-05-18T05:23:52.093Z,9.44
2023-05-18T05:24:55.209Z,9.47
2023-05-18T05:25:58.155Z,9.50
2023-05-18T05:27:02.793Z,9.53
2023-05-18T05:28:05.921Z,9.56
2023-05-18T05:29:09.620Z,9.57
2023-05-18T05:30:12.700Z,9.58
2023-05-18T05:31:17.987Z,9.59
2023-05-18T05:32:21.644Z,9.61
2023-05-18T05:33:24.870Z,9.61
2023-05-18T05:34:27.830Z,9.64
2023-05-18T05:35:33.418Z,9.63
2023-05-18T05:36:36.788Z,9.64
2023-05-18T05:37:40.163Z,9.67
2023-05-18T05:38:43.789Z,9.69
2023-05-18T05:39:47.444Z,9.73
2023-05-18T05:40:52.852Z,9.78
2023-05-18T05:41:57.129Z,9.81
2023-05-18T05:43:00.583Z,9.85
2023-05-18T05:44:03.670Z,9.89
2023-05-18T05:45:07.613Z,9.92
2023-05-18T05:46:18.221Z,9.94
2023-05-18T05:47:21.643Z,9.96
2023-05-18T05:48:25.029Z,9.99
2023-05-18T05:49:27.964Z,10.02
2023-05-18T05:50:32.490Z,10.05
2023-05-18T05:51:37.529Z,10.08
2023-05-18T05:52:40.908Z,10.10
2023-05-18T05:53:46.234Z,10.14
2023-05-18T05:54:49.593Z,10.15
2023-05-18T05:55:52.492Z,10.11
2023-05-18T05:56:55.644Z,10.14
2023-05-18T05:57:59.046Z,10.11
2023-05-18T05:59:02.164Z,10.13
2023-05-18T06:00:06.168Z,10.14
2023-05-18T06:01:23.746Z,10.14
2023-05-18T06:02:27.233Z,10.22
2023-05-18T06:03:34.385Z,10.20
2023-05-18T06:04:40.859Z,10.27
2023-05-18T06:05:43.821Z,10.27
2023-05-18T06:06:49.445Z,10.34
2023-05-18T06:07:52.844Z,10.32
2023-05-18T06:08:55.849Z,10.38
2023-05-18T06:09:58.949Z,10.38
2023-05-18T06:11:01.895Z,10.40
2023-05-18T06:12:06.322Z,10.42
2023-05-18T06:13:09.797Z,10.46
2023-05-18T06:14:21.494Z,10.49
2023-05-18T06:15:24.622Z,10.52
2023-05-18T06:16:27.707Z,10.53
2023-05-18T06:17:30.923Z,10.50
2023-05-18T06:18:35.058Z,10.50
2023-05-18T06:19:40.404Z,10.53
2023-05-18T06:20:43.402Z,10.50
2023-05-18T06:21:46.535Z,10.50
2023-05-18T06:22:49.523Z,10.54
2023-05-18T06:24:01.483Z,10.57
2023-05-18T06:25:04.881Z,10.63
2023-05-18T06:26:23.226Z,10.61
2023-05-18T06:27:46.430Z,10.64
2023-05-18T06:29:09.032Z,10.67
2023-05-18T06:30:41.852Z,10.71
2023-05-18T06:32:04.631Z,10.75
2023-05-18T06:33:21.264Z,10.79
2023-05-18T06:34:24.211Z,10.89
2023-05-18T06:35:27.291Z,10.96
2023-05-18T06:36:30.348Z,10.99
2023-05-18T06:37:34.069Z,11.09
2023-05-18T06:38:37.290Z,11.10
2023-05-18T06:39:40.596Z,11.19
2023-05-18T06:40:44.517Z,11.27
2023-05-18T06:41:47.524Z,11.30
2023-05-18T06:42:57.751Z,11.34
2023-05-18T06:44:04.621Z,11.48
2023-05-18T06:45:29.641Z,11.50
2023-05-18T06:46:44.873Z,11.52
2023-05-18T06:47:54.783Z,11.52
2023-05-18T06:48:57.845Z,11.61
2023-05-18T06:50:01.003Z,11.62
2023-05-18T06:51:04.802Z,11.65
2023-05-18T06:52:10.044Z,11.68
2023-05-18T06:53:13.793Z,11.70
2023-05-18T06:54:17.384Z,11.74
2023-05-18T06:55:20.600Z,11.79
2023-05-18T06:56:23.931Z,11.83
2023-05-18T06:57:27.919Z,11.87
2023-05-18T06:58:31.246Z,11.95
2023-05-18T06:59:37.311Z,11.99
2023-05-18T07:00:40.800Z,12.03
2023-05-18T07:01:44.801Z,12.09
2023-05-18T07:02:48.532Z,12.07
2023-05-18T07:03:52.385Z,12.12
2023-05-18T07:04:55.735Z,12.14
2023-05-18T07:05:59.258Z,12.19
2023-05-18T07:07:02.196Z,12.22
2023-05-18T07:08:05.980Z,12.27
2023-05-18T07:09:08.912Z,12.34
2023-05-18T07:10:11.844Z,12.36
2023-05-18T07:11:14.963Z,12.39
2023-05-18T07:12:17.928Z,12.45
2023-05-18T07:13:20.956Z,12.47
2023-05-18T07:14:24.083Z,12.50
2023-05-18T07:15:27.057Z,12.53
2023-05-18T07:16:30.017Z,12.59
2023-05-18T07:17:33.040Z,12.66
2023-05-18T07:18:36.431Z,12.72
2023-05-18T07:19:39.472Z,12.76
2023-05-18T07:20:42.700Z,12.77
2023-05-18T07:21:45.892Z,12.81
2023-05-18T07:22:48.924Z,12.87
2023-05-18T07:23:55.240Z,12.92
2023-05-18T07:24:59.199Z,12.92
2023-05-18T07:26:02.057Z,12.98
2023-05-18T07:27:05.294Z,13.05
2023-05-18T07:28:08.463Z,13.06
2023-05-18T07:29:11.386Z,13.09
2023-05-18T07:30:14.529Z,13.11
2023-05-18T07:31:21.434Z,13.18
2023-05-18T07:32:24.935Z,13.15
2023-05-18T07:33:27.862Z,13.17
2023-05-18T07:34:31.316Z,13.23
2023-05-18T07:35:34.301Z,13.22
2023-05-18T07:36:37.228Z,13.23
2023-05-18T07:37:40.190Z,13.17
2023-05-18T07:38:43.316Z,13.17
2023-05-18T07:39:47.836Z,13.20
2023-05-18T07:40:51.088Z,13.24
2023-05-18T07:41:55.188Z,13.26
2023-05-18T07:42:58.115Z,13.26
2023-05-18T07:44:01.153Z,13.28
2023-05-18T07:45:04.740Z,13.33
2023-05-18T07:46:07.781Z,13.35
2023-05-18T07:47:11.744Z,13.38
2023-05-18T07:48:14.868Z,13.36
2023-05-18T07:49:17.884Z,13.38
2023-05-18T07:50:21.029Z,13.46
2023-05-18T07:51:23.926Z,13.51
2023-05-18T07:52:27.040Z,13.60
2023-05-18T07:53:30.004Z,13.64
2023-05-18T07:54:33.125Z,13.71
2023-05-18T07:55:36.040Z,13.77
2023-05-18T07:56:39.401Z,13.92
2023-05-18T07:57:42.818Z,13.96
2023-05-18T07:58:45.821Z,14.05
2023-05-18T07:59:48.777Z,14.11
2023-05-18T08:00:51.770Z,14.20
2023-05-18T08:01:55.123Z,14.24
2023-05-18T08:02:58.348Z,14.31
2023-05-18T08:04:01.843Z,14.41
2023-05-18T08:05:05.398Z,14.47
2023-05-18T08:06:08.473Z,14.56
2023-05-18T08:07:12.776Z,14.69
2023-05-18T08:08:15.804Z,14.81
2023-05-18T08:09:18.780Z,14.89
2023-05-18T08:10:22.275Z,14.97
2023-05-18T08:11:25.698Z,15.06
2023-05-18T08:12:30.070Z,15.11
2023-05-18T08:13:34.133Z,15.14
2023-05-18T08:14:37.293Z,15.18
2023-05-18T08:15:43.579Z,15.22
2023-05-18T08:16:46.614Z,15.25
2023-05-18T08:17:49.576Z,15.26
2023-05-18T08:18:52.703Z,15.27
2023-05-18T08:19:57.059Z,15.27
2023-05-18T08:21:00.638Z,15.26
2023-05-18T08:22:03.734Z,15.30
2023-05-18T08:23:06.650Z,15.35
2023-05-18T08:24:09.881Z,15.35
2023-05-18T08:25:12.933Z,15.39
2023-05-18T08:26:15.812Z,15.48
2023-05-18T08:27:20.078Z,15.51
2023-05-18T08:28:23.452Z,15.53
2023-05-18T08:29:26.509Z,15.58
2023-05-18T08:30:29.667Z,15.66
2023-05-18T08:31:32.578Z,15.74
2023-05-18T08:32:37.532Z,15.77
2023-05-18T08:33:40.804Z,15.80
2023-05-18T08:34:44.126Z,15.76
2023-05-18T08:35:47.769Z,15.71
2023-05-18T08:36:50.856Z,15.72
2023-05-18T08:37:55.258Z,15.74
2023-05-18T08:38:58.573Z,15.68
2023-05-18T08:40:01.550Z,15.68
2023-05-18T08:41:13.352Z,15.66
2023-05-18T08:42:24.448Z,15.69
2023-05-18T08:43:33.576Z,15.74
2023-05-18T08:45:08.383Z,15.75
2023-05-18T08:46:20.272Z,15.77
2023-05-18T08:47:26.712Z,15.76
2023-05-18T08:48:33.517Z,15.73
2023-05-18T08:49:37.367Z,15.74
2023-05-18T08:50:42.562Z,15.74
2023-05-18T08:51:48.276Z,15.76
2023-05-18T08:52:55.502Z,15.79
2023-05-18T08:53:58.973Z,15.78
2023-05-18T08:55:10.959Z,15.77
2023-05-18T08:56:15.786Z,15.74
2023-05-18T08:57:22.392Z,15.72
2023-05-18T08:58:37.959Z,15.74
2023-05-18T08:59:42.778Z,15.77
2023-05-18T09:00:46.120Z,15.73
2023-05-18T09:01:49.072Z,15.66
2023-05-18T09:02:52.387Z,15.66
2023-05-18T09:03:57.022Z,15.72
2023-05-18T09:05:00.476Z,15.81
2023-05-18T09:06:04.758Z,15.85
2023-05-18T09:07:10.685Z,15.88
2023-05-18T09:08:13.912Z,15.87
2023-05-18T09:09:18.286Z,15.86
2023-05-18T09:10:22.016Z,15.87
2023-05-18T09:11:27.852Z,15.87
2023-05-18T09:12:32.780Z,15.88
2023-05-18T09:13:35.686Z,15.92
2023-05-18T09:14:41.664Z,15.98
2023-05-18T09:15:44.650Z,16.03
2023-05-18T09:16:47.618Z,16.06
2023-05-18T09:17:50.748Z,16.09
2023-05-18T09:18:54.025Z,16.13
2023-05-18T09:19:57.868Z,16.15
2023-05-18T09:21:00.980Z,16.21
2023-05-18T09:22:04.415Z,16.25
2023-05-18T09:23:07.708Z,16.30
2023-05-18T09:24:11.784Z,16.36
2023-05-18T09:25:16.514Z,16.39
2023-05-18T09:26:21.894Z,16.40
2023-05-18T09:27:25.967Z,16.37
2023-05-18T09:28:40.738Z,16.39
2023-05-18T09:29:56.753Z,16.40
2023-05-18T09:31:03.335Z,16.39
2023-05-18T09:32:11.048Z,16.40
2023-05-18T09:33:18.294Z,16.45
2023-05-18T09:34:21.737Z,16.52
2023-05-18T09:35:25.209Z,16.56
2023-05-18T09:36:29.670Z,16.59
2023-05-18T09:37:33.746Z,16.66
2023-05-18T09:38:45.991Z,16.74
2023-05-18T09:40:04.859Z,16.83
2023-05-18T09:41:12.672Z,16.93
2023-05-18T09:42:15.619Z,17.02
2023-05-18T09:43:19.270Z,17.08
2023-05-18T09:44:32.711Z,17.14
2023-05-18T09:45:42.806Z,17.17
2023-05-18T09:46:45.842Z,17.16
2023-05-18T09:47:50.642Z,17.14
2023-05-18T09:48:55.206Z,17.12
2023-05-18T09:49:58.186Z,17.13
2023-05-18T09:51:01.093Z,17.08
2023-05-18T09:52:09.771Z,17.06
2023-05-18T09:53:14.293Z,17.06
2023-05-18T09:54:17.259Z,17.06
2023-05-18T09:55:20.912Z,17.08
2023-05-18T09:56:25.343Z,17.10
2023-05-18T09:57:28.326Z,17.12
2023-05-18T09:58:34.527Z,17.10
2023-05-18T09:59:37.518Z,17.05
2023-05-18T10:00:49.468Z,17.04
2023-05-18T10:02:01.282Z,17.01
2023-05-18T10:03:04.275Z,17.00
2023-05-18T10:04:07.389Z,16.99
2023-05-18T10:05:23.795Z,16.99
2023-05-18T10:06:27.668Z,16.97
2023-05-18T10:07:31.607Z,17.02
2023-05-18T10:08:36.037Z,17.07
2023-05-18T10:09:43.873Z,17.13
2023-05-18T10:10:50.331Z,17.13
2023-05-18T10:11:53.675Z,17.16
2023-05-18T10:12:58.576Z,17.17
2023-05-18T10:14:01.895Z,17.16
2023-05-18T10:15:09.049Z,17.15
2023-05-18T10:16:12.207Z,17.15
2023-05-18T10:17:17.790Z,17.12
2023-05-18T10:18:29.448Z,17.09
2023-05-18T10:19:35.929Z,17.10
2023-05-18T10:20:39.166Z,17.09
2023-05-18T10:21:43.028Z,17.09
2023-05-18T10:22:48.089Z,17.08
2023-05-18T10:23:52.480Z,17.06
2023-05-18T10:24:57.008Z,16.99
2023-05-18T10:26:00.862Z,16.96
2023-05-18T10:27:07.973Z,17.00
2023-05-18T10:28:11.936Z,16.97
2023-05-18T10:29:16.597Z,16.89
2023-05-18T10:30:19.948Z,16.86
2023-05-18T10:31:23.778Z,16.80
2023-05-18T10:32:32.613Z,16.72
2023-05-18T10:33:37.855Z,16.70
2023-05-18T10:34:43.615Z,16.67
2023-05-18T10:35:49.443Z,16.65
2023-05-18T10:36:52.449Z,16.65
2023-05-18T10:37:57.733Z,16.63
2023-05-18T10:39:02.278Z,16.63
2023-05-18T10:40:07.919Z,16.66
2023-05-18T10:41:12.579Z,16.67
2023-05-18T10:42:17.494Z,16.72
2023-05-18T10:43:24.381Z,16.75
2023-05-18T10:44:27.510Z,16.80
2023-05-18T10:45:35.012Z,16.84
2023-05-18T10:46:38.628Z,16.85
2023-05-18T10:47:44.146Z,16.85
2023-05-18T10:48:48.571Z,16.88
2023-05-18T10:49:52.469Z,16.92
2023-05-18T10:50:57.214Z,16.98
2023-05-18T10:52:01.052Z,17.06
2023-05-18T10:53:06.507Z,17.13
2023-05-18T10:54:14.356Z,17.21
2023-05-18T10:55:18.083Z,17.24
2023-05-18T10:56:21.064Z,17.28
2023-05-18T10:57:26.675Z,17.29
2023-05-18T10:58:31.075Z,17.30
2023-05-18T10:59:34.442Z,17.33
2023-05-18T11:00:40.147Z,17.35
2023-05-18T11:01:44.874Z,17.37
2023-05-18T11:02:51.237Z,17.37
2023-05-18T11:03:54.293Z,17.34
2023-05-18T11:04:57.419Z,17.32
2023-05-18T11:06:10.399Z,17.29
2023-05-18T11:07:14.063Z,17.25
2023-05-18T11:08:27.335Z,17.20
2023-05-18T11:09:30.507Z,17.17
2023-05-18T11:10:47.057Z,17.19
2023-05-18T11:11:58.166Z,17.24
2023-05-18T11:13:02.189Z,17.30
2023-05-18T11:14:05.504Z,17.35
2023-05-18T11:15:09.497Z,17.38
2023-05-18T11:16:12.595Z,17.37
2023-05-18T11:17:22.168Z,17.40
2023-05-18T11:18:35.090Z,17.46
2023-05-18T11:19:38.090Z,17.52
2023-05-18T11:20:41.062Z,17.58
2023-05-18T11:21:44.273Z,17.64
2023-05-18T11:22:59.415Z,17.62
2023-05-18T11:24:31.250Z,17.61
2023-05-18T11:25:34.507Z,17.60
2023-05-18T11:26:41.527Z,17.60
2023-05-18T11:27:44.854Z,17.63
2023-05-18T11:28:52.435Z,17.64
2023-05-18T11:30:07.557Z,17.72
2023-05-18T11:31:18.300Z,17.71
2023-05-18T11:32:30.167Z,17.71
2023-05-18T11:33:36.628Z,17.66
2023-05-18T11:34:41.017Z,17.64
2023-05-18T11:36:09.172Z,17.64
2023-05-18T11:37:17.137Z,17.63
2023-05-18T11:38:20.133Z,17.65
2023-05-18T11:39:26.164Z,17.71
2023-05-18T11:40:47.191Z,17.81
2023-05-18T11:42:01.547Z,17.89
2023-05-18T11:43:04.530Z,17.89
2023-05-18T11:44:16.956Z,17.87
2023-05-18T11:45:23.284Z,17.82
2023-05-18T11:46:26.490Z,17.78
2023-05-18T11:47:32.905Z,17.73
2023-05-18T11:48:44.479Z,17.70
2023-05-18T11:49:48.905Z,17.64
2023-05-18T11:50:56.374Z,17.57
2023-05-18T11:52:13.005Z,17.54
2023-05-18T11:53:17.519Z,17.53
2023-05-18T11:54:22.977Z,17.54
2023-05-18T11:55:38.210Z,17.53
2023-05-18T11:56:41.504Z,17.51
2023-05-18T11:57:48.074Z,17.47
2023-05-18T11:59:11.750Z,17.49
2023-05-18T12:00:16.241Z,17.53
2023-05-18T12:01:19.383Z,17.56
2023-05-18T12:02:26.808Z,17.57
2023-05-18T12:03:31.749Z,17.57
2023-05-18T12:04:37.681Z,17.52
2023-05-18T12:05:49.330Z,17.49
2023-05-18T12:06:52.928Z,17.51
2023-05-18T12:07:56.419Z,17.59
2023-05-18T12:09:00.951Z,17.69
2023-05-18T12:10:09.174Z,17.76
2023-05-18T12:11:13.662Z,17.78
2023-05-18T12:12:20.235Z,17.81
2023-05-18T12:13:23.781Z,17.85
2023-05-18T12:14:27.702Z,17.92
2023-05-18T12:15:31.401Z,17.96
2023-05-18T12:16:36.947Z,17.95
2023-05-18T12:17:43.166Z,17.96
2023-05-18T12:18:50.203Z,17.96
2023-05-18T12:19:53.196Z,17.98
2023-05-18T12:20:56.113Z,18.00
2023-05-18T12:21:59.275Z,18.05
2023-05-18T12:23:02.154Z,18.08
2023-05-18T12:24:05.397Z,18.11
2023-05-18T12:25:09.125Z,18.13
2023-05-18T12:26:12.586Z,18.13
2023-05-18T12:27:16.080Z,18.11
2023-05-18T12:28:19.162Z,18.10
2023-05-18T12:29:23.045Z,18.11
2023-05-18T12:30:36.920Z,18.09
2023-05-18T12:31:41.738Z,18.09
2023-05-18T12:32:49.008Z,18.12
2023-05-18T12:33:55.619Z,18.12
2023-05-18T12:35:00.531Z,18.09
2023-05-18T12:36:03.625Z,18.08
2023-05-18T12:37:07.926Z,18.09
2023-05-18T12:38:11.843Z,18.09
2023-05-18T12:39:17.867Z,18.08
2023-05-18T12:40:20.946Z,18.09
2023-05-18T12:41:28.064Z,18.08
2023-05-18T12:42:31.094Z,18.05
2023-05-18T12:43:35.008Z,18.04
2023-05-18T12:44:38.897Z,18.03
2023-05-18T12:45:44.854Z,18.02
2023-05-18T12:46:49.509Z,18.01
2023-05-18T12:47:55.304Z,17.99
2023-05-18T12:49:02.090Z,17.94
2023-05-18T12:50:05.583Z,17.93
2023-05-18T12:51:18.017Z,17.93
2023-05-18T12:52:21.834Z,17.93
2023-05-18T12:53:24.756Z,17.99
2023-05-18T12:54:30.021Z,18.04
2023-05-18T12:55:36.069Z,18.11
2023-05-18T12:56:52.681Z,18.15
2023-05-18T12:58:17.119Z,18.16
2023-05-18T12:59:20.445Z,18.07
2023-05-18T13:00:23.607Z,18.01
2023-05-18T13:01:26.950Z,17.98
2023-05-18T13:02:38.034Z,17.97
2023-05-18T13:03:42.418Z,18.02
2023-05-18T13:04:45.533Z,17.96
2023-05-18T13:06:04.341Z,17.97
2023-05-18T13:07:07.325Z,18.00
2023-05-18T13:08:16.364Z,18.00
2023-05-18T13:09:20.048Z,17.98
2023-05-18T13:10:23.625Z,17.91
2023-05-18T13:11:27.802Z,17.88
2023-05-18T13:12:45.705Z,17.86
2023-05-18T13:14:06.384Z,17.81
2023-05-18T13:15:20.645Z,17.77
2023-05-18T13:16:23.661Z,17.72
2023-05-18T13:17:26.632Z,17.69
2023-05-18T13:18:29.661Z,17.69
2023-05-18T13:19:35.132Z,17.64
2023-05-18T13:20:57.335Z,17.56
2023-05-18T13:22:00.333Z,17.50
2023-05-18T13:23:12.569Z,17.47
2023-05-18T13:24:15.839Z,17.44
2023-05-18T13:25:18.820Z,17.34
2023-05-18T13:26:22.359Z,17.30
2023-05-18T13:27:25.262Z,17.29
2023-05-18T13:28:28.230Z,17.23
2023-05-18T13:29:31.115Z,17.18
2023-05-18T13:30:34.235Z,17.12
2023-05-18T13:31:37.389Z,17.07
2023-05-18T13:32:40.859Z,17.03
2023-05-18T13:33:43.826Z,16.98
2023-05-18T13:34:46.968Z,16.97
2023-05-18T13:35:50.117Z,16.96
2023-05-18T13:36:57.249Z,16.95
2023-05-18T13:38:01.173Z,16.95
2023-05-18T13:39:07.327Z,17.00
2023-05-18T13:40:11.179Z,17.02
2023-05-18T13:41:17.198Z,16.94
2023-05-18T13:42:21.680Z,16.86
2023-05-18T13:43:24.652Z,16.82
2023-05-18T13:44:27.608Z,16.81
2023-05-18T13:45:31.212Z,16.81
2023-05-18T13:46:38.137Z,16.79
2023-05-18T13:47:41.917Z,16.74
2023-05-18T13:48:45.360Z,16.74
2023-05-18T13:49:48.346Z,16.72
2023-05-18T13:50:51.426Z,16.70
2023-05-18T13:51:54.480Z,16.70
2023-05-18T13:52:57.491Z,16.71
2023-05-18T13:54:01.824Z,16.70
2023-05-18T13:55:07.122Z,16.66
2023-05-18T13:56:10.144Z,16.65
2023-05-18T13:57:13.198Z,16.65
2023-05-18T13:58:16.448Z,16.66
2023-05-18T13:59:19.957Z,16.67
2023-05-18T14:00:22.906Z,16.66
2023-05-18T14:01:26.068Z,16.65
2023-05-18T14:02:29.272Z,16.63
2023-05-18T14:03:34.227Z,16.64
2023-05-18T14:04:37.256Z,16.65
2023-05-18T14:05:40.205Z,16.66
2023-05-18T14:06:43.220Z,16.67
2023-05-18T14:07:46.214Z,16.68
2023-05-18T14:08:50.096Z,16.65
2023-05-18T14:09:53.106Z,16.64
2023-05-18T14:10:56.270Z,16.61
2023-05-18T14:12:00.309Z,16.58
2023-05-18T14:13:03.429Z,16.58
2023-05-18T14:14:07.228Z,16.58
2023-05-18T14:15:11.875Z,16.55
2023-05-18T14:16:14.775Z,16.52